Hyde Park, Vermont
Current Conditions -  °F | °C
As of 7:05 AM on Sunday 25 Jan 2015 (Local Time) from KMVL Reporting Station
Light Snow Light Snow  
Wind Chill:   Ceiling: 3000
Heat Index: 19°   Visibility: 5mi
Dew Point: 10°   Wind: 16mph
Humidity: 68%   Direction: 320°NW
Pressure: 29.54"   Gusts: NA
Location:  44.59°N, 72.62°W
Report Text: KMVL 251205Z AUTO 32014KT 5SM -SN SCT020 BKN030 OVC036 M07/M12 A2954 RMK AO2 PRESRR P0000 T10721122 TSNO
Loading
Personal Weather Stations






























Interactive Weather Map New forecast layout! Learn more

10-Day Weather Forecast

Advertisements
Track Severe Weather on mobile